sensor_id;sensor_type;location;lat;lon;timestamp;pressure;altitude;pressure_sealevel;temperature;humidity
49529;BME280;35423;37.320;-121.762;2022-09-06T00:00:45;98930.24;;;58.92;0.00
49529;BME280;35423;37.320;-121.762;2022-09-06T00:03:11;98930.00;;;59.30;0.00
49529;BME280;35423;37.320;-121.762;2022-09-06T00:05:38;98925.29;;;58.89;0.00
49529;BME280;35423;37.320;-121.762;2022-09-06T00:08:05;98920.88;;;58.69;0.00
49529;BME280;35423;37.320;-121.762;2022-09-06T00:10:32;98921.93;;;58.66;0.00
49529;BME280;35423;37.320;-121.762;2022-09-06T00:13:02;98923.28;;;58.46;0.00
49529;BME280;35423;37.320;-121.762;2022-09-06T00:15:25;98919.90;;;58.92;0.00
49529;BME280;35423;37.320;-121.762;2022-09-06T00:17:53;98921.28;;;58.55;0.00
49529;BME280;35423;37.320;-121.762;2022-09-06T00:20:19;98925.40;;;57.97;0.00
49529;BME280;35423;37.320;-121.762;2022-09-06T00:22:46;98923.48;;;57.64;0.00
49529;BME280;35423;37.320;-121.762;2022-09-06T00:25:14;98921.67;;;57.72;0.00
49529;BME280;35423;37.320;-121.762;2022-09-06T00:27:42;98923.33;;;56.96;0.00
49529;BME280;35423;37.320;-121.762;2022-09-06T00:30:10;98921.27;;;57.62;0.00
49529;BME280;35423;37.320;-121.762;2022-09-06T00:32:35;98921.22;;;57.40;0.00
49529;BME280;35423;37.320;-121.762;2022-09-06T00:34:59;98923.57;;;57.38;0.08
49529;BME280;35423;37.320;-121.762;2022-09-06T00:37:26;98923.29;;;57.18;0.13
49529;BME280;35423;37.320;-121.762;2022-09-06T00:39:52;98923.06;;;56.79;0.13
49529;BME280;35423;37.320;-121.762;2022-09-06T00:42:19;98923.50;;;56.76;0.23
49529;BME280;35423;37.320;-121.762;2022-09-06T00:44:45;98922.90;;;55.92;0.10
49529;BME280;35423;37.320;-121.762;2022-09-06T00:47:16;98921.92;;;56.90;0.18
49529;BME280;35423;37.320;-121.762;2022-09-06T00:49:48;98922.33;;;55.61;0.43
49529;BME280;35423;37.320;-121.762;2022-09-06T00:52:17;98924.52;;;55.83;1.45
49529;BME280;35423;37.320;-121.762;2022-09-06T00:54:48;98929.87;;;55.37;0.91
49529;BME280;35423;37.320;-121.762;2022-09-06T00:57:13;98932.19;;;55.59;0.87
49529;BME280;35423;37.320;-121.762;2022-09-06T00:59:40;98934.91;;;54.78;0.95
49529;BME280;35423;37.320;-121.762;2022-09-06T01:02:11;98931.60;;;54.88;0.82
49529;BME280;35423;37.320;-121.762;2022-09-06T01:04:43;98928.87;;;54.15;0.98
49529;BME280;35423;37.320;-121.762;2022-09-06T01:07:13;98932.97;;;53.97;0.96
49529;BME280;35423;37.320;-121.762;2022-09-06T01:09:44;98932.11;;;53.84;1.14
49529;BME280;35423;37.320;-121.762;2022-09-06T01:12:09;98932.85;;;53.24;1.22
49529;BME280;35423;37.320;-121.762;2022-09-06T01:14:32;98933.44;;;53.24;1.37
49529;BME280;35423;37.320;-121.762;2022-09-06T01:16:58;98935.22;;;52.77;1.55
49529;BME280;35423;37.320;-121.762;2022-09-06T01:21:49;98938.80;;;51.85;2.01
49529;BME280;35423;37.320;-121.762;2022-09-06T01:29:11;98947.77;;;51.43;2.46
49529;BME280;35423;37.320;-121.762;2022-09-06T01:31:37;98948.65;;;51.72;2.60
49529;BME280;35423;37.320;-121.762;2022-09-06T01:36:27;98954.09;;;51.31;2.63
49529;BME280;35423;37.320;-121.762;2022-09-06T01:38:50;98954.22;;;50.87;2.73
49529;BME280;35423;37.320;-121.762;2022-09-06T01:41:15;98955.59;;;50.91;2.70
49529;BME280;35423;37.320;-121.762;2022-09-06T01:43:44;98954.24;;;50.53;2.71
49529;BME280;35423;37.320;-121.762;2022-09-06T01:46:12;98952.60;;;50.70;2.73
49529;BME280;35423;37.320;-121.762;2022-09-06T01:49:01;98955.40;;;50.68;2.82
49529;BME280;35423;37.320;-121.762;2022-09-06T01:51:22;98954.87;;;50.87;2.92
49529;BME280;35423;37.320;-121.762;2022-09-06T01:53:56;98955.38;;;49.82;3.10
49529;BME280;35423;37.320;-121.762;2022-09-06T01:56:18;98956.86;;;50.71;3.29
49529;BME280;35423;37.320;-121.762;2022-09-06T01:58:55;98958.39;;;49.93;3.38
49529;BME280;35423;37.320;-121.762;2022-09-06T02:01:16;98957.71;;;50.14;3.43
49529;BME280;35423;37.320;-121.762;2022-09-06T02:03:46;98956.25;;;49.59;3.61
49529;BME280;35423;37.320;-121.762;2022-09-06T02:06:10;98957.77;;;49.73;3.70
49529;BME280;35423;37.320;-121.762;2022-09-06T02:08:37;98958.43;;;49.64;3.78
49529;BME280;35423;37.320;-121.762;2022-09-06T02:11:02;98964.81;;;49.31;3.75
49529;BME280;35423;37.320;-121.762;2022-09-06T02:13:29;98959.27;;;48.85;3.81
49529;BME280;35423;37.320;-121.762;2022-09-06T02:15:55;98961.42;;;48.70;3.82
49529;BME280;35423;37.320;-121.762;2022-09-06T02:18:22;98965.85;;;48.66;3.90
49529;BME280;35423;37.320;-121.762;2022-09-06T02:20:47;98966.80;;;47.99;3.97
49529;BME280;35423;37.320;-121.762;2022-09-06T02:23:11;98967.47;;;48.29;4.01
49529;BME280;35423;37.320;-121.762;2022-09-06T02:25:42;98967.56;;;48.18;4.03
49529;BME280;35423;37.320;-121.762;2022-09-06T02:28:06;98969.29;;;47.81;4.17
49529;BME280;35423;37.320;-121.762;2022-09-06T02:30:31;98973.51;;;47.93;4.15
49529;BME280;35423;37.320;-121.762;2022-09-06T02:33:00;98978.55;;;47.45;4.20
49529;BME280;35423;37.320;-121.762;2022-09-06T02:35:23;98984.11;;;47.47;4.36
49529;BME280;35423;37.320;-121.762;2022-09-06T02:37:49;98990.90;;;47.01;4.47
49529;BME280;35423;37.320;-121.762;2022-09-06T02:40:16;98993.07;;;47.06;4.57
49529;BME280;35423;37.320;-121.762;2022-09-06T02:42:43;98999.43;;;46.57;4.62
49529;BME280;35423;37.320;-121.762;2022-09-06T02:45:09;99002.42;;;46.90;4.72
49529;BME280;35423;37.320;-121.762;2022-09-06T02:47:35;99006.59;;;47.03;4.93
49529;BME280;35423;37.320;-121.762;2022-09-06T02:50:03;99011.55;;;46.53;5.02
49529;BME280;35423;37.320;-121.762;2022-09-06T02:52:31;99016.75;;;46.58;4.99
49529;BME280;35423;37.320;-121.762;2022-09-06T02:54:56;99021.36;;;46.34;5.09
49529;BME280;35423;37.320;-121.762;2022-09-06T02:57:25;99022.49;;;46.26;5.15
49529;BME280;35423;37.320;-121.762;2022-09-06T02:59:51;99026.89;;;46.19;5.15
49529;BME280;35423;37.320;-121.762;2022-09-06T03:02:18;99031.07;;;46.25;5.10
49529;BME280;35423;37.320;-121.762;2022-09-06T03:04:46;99033.35;;;46.00;5.19
49529;BME280;35423;37.320;-121.762;2022-09-06T03:07:12;99035.52;;;45.74;5.26
49529;BME280;35423;37.320;-121.762;2022-09-06T03:09:39;99038.06;;;45.77;5.27
49529;BME280;35423;37.320;-121.762;2022-09-06T03:12:05;99042.59;;;45.50;5.31
49529;BME280;35423;37.320;-121.762;2022-09-06T03:14:31;99045.62;;;45.37;5.38
49529;BME280;35423;37.320;-121.762;2022-09-06T03:16:56;99044.60;;;45.18;5.41
49529;BME280;35423;37.320;-121.762;2022-09-06T03:19:23;99049.60;;;45.39;5.28
49529;BME280;35423;37.320;-121.762;2022-09-06T03:21:49;99051.91;;;45.01;5.15
49529;BME280;35423;37.320;-121.762;2022-09-06T03:24:20;99057.66;;;45.22;5.11
49529;BME280;35423;37.320;-121.762;2022-09-06T03:26:46;99059.44;;;44.43;5.32
49529;BME280;35423;37.320;-121.762;2022-09-06T03:29:14;99066.70;;;44.64;5.54
49529;BME280;35423;37.320;-121.762;2022-09-06T03:31:40;99071.40;;;43.94;5.76
49529;BME280;35423;37.320;-121.762;2022-09-06T03:34:14;99073.13;;;44.47;5.82
49529;BME280;35423;37.320;-121.762;2022-09-06T03:36:40;99081.37;;;44.42;5.83
49529;BME280;35423;37.320;-121.762;2022-09-06T03:39:06;99083.73;;;44.18;5.63
49529;BME280;35423;37.320;-121.762;2022-09-06T03:41:36;99089.08;;;44.11;5.46
49529;BME280;35423;37.320;-121.762;2022-09-06T03:44:00;99090.81;;;44.34;5.30
49529;BME280;35423;37.320;-121.762;2022-09-06T03:46:28;99094.37;;;44.39;5.20
49529;BME280;35423;37.320;-121.762;2022-09-06T03:48:54;99099.69;;;43.80;5.33
49529;BME280;35423;37.320;-121.762;2022-09-06T03:51:20;99100.51;;;43.63;5.38
49529;BME280;35423;37.320;-121.762;2022-09-06T03:53:47;99102.34;;;43.36;5.47
49529;BME280;35423;37.320;-121.762;2022-09-06T03:56:16;99103.82;;;43.61;5.54
49529;BME280;35423;37.320;-121.762;2022-09-06T03:58:42;99107.02;;;43.40;5.50
49529;BME280;35423;37.320;-121.762;2022-09-06T04:01:14;99109.00;;;43.51;5.33
49529;BME280;35423;37.320;-121.762;2022-09-06T04:03:40;99113.57;;;42.89;5.41
49529;BME280;35423;37.320;-121.762;2022-09-06T04:06:07;99119.55;;;43.32;5.77
49529;BME280;35423;37.320;-121.762;2022-09-06T04:08:34;99124.24;;;42.80;6.11
49529;BME280;35423;37.320;-121.762;2022-09-06T04:11:04;99122.68;;;42.64;6.12
49529;BME280;35423;37.320;-121.762;2022-09-06T04:13:30;99125.25;;;42.90;6.03
49529;BME280;35423;37.320;-121.762;2022-09-06T04:15:56;99127.24;;;43.17;5.64
49529;BME280;35423;37.320;-121.762;2022-09-06T04:18:25;99125.81;;;42.99;5.54
49529;BME280;35423;37.320;-121.762;2022-09-06T04:20:50;99127.84;;;42.31;5.53
49529;BME280;35423;37.320;-121.762;2022-09-06T04:23:23;99131.59;;;42.66;5.59
49529;BME280;35423;37.320;-121.762;2022-09-06T04:25:49;99133.71;;;42.26;5.78
49529;BME280;35423;37.320;-121.762;2022-09-06T04:28:15;99135.40;;;42.23;5.88
49529;BME280;35423;37.320;-121.762;2022-09-06T04:30:43;99139.97;;;42.47;5.96
49529;BME280;35423;37.320;-121.762;2022-09-06T04:33:09;99141.82;;;42.06;5.93
49529;BME280;35423;37.320;-121.762;2022-09-06T04:35:37;99143.24;;;42.11;5.71
49529;BME280;35423;37.320;-121.762;2022-09-06T04:38:05;99145.09;;;42.03;5.83
49529;BME280;35423;37.320;-121.762;2022-09-06T04:40:32;99146.17;;;41.86;5.86
49529;BME280;35423;37.320;-121.762;2022-09-06T04:42:59;99143.82;;;42.01;5.84
49529;BME280;35423;37.320;-121.762;2022-09-06T04:45:26;99143.49;;;41.99;6.23
49529;BME280;35423;37.320;-121.762;2022-09-06T04:47:51;99140.53;;;41.61;6.27
49529;BME280;35423;37.320;-121.762;2022-09-06T04:50:30;99139.58;;;42.01;5.93
49529;BME280;35423;37.320;-121.762;2022-09-06T04:52:58;99140.57;;;41.48;5.90
49529;BME280;35423;37.320;-121.762;2022-09-06T04:55:24;99143.95;;;41.83;6.18
49529;BME280;35423;37.320;-121.762;2022-09-06T04:57:50;99143.61;;;41.30;6.45
49529;BME280;35423;37.320;-121.762;2022-09-06T05:00:16;99144.19;;;41.31;6.50
49529;BME280;35423;37.320;-121.762;2022-09-06T05:02:41;99144.16;;;40.65;6.54
49529;BME280;35423;37.320;-121.762;2022-09-06T05:05:09;99143.53;;;41.07;6.51
49529;BME280;35423;37.320;-121.762;2022-09-06T05:07:34;99140.42;;;40.97;6.52
49529;BME280;35423;37.320;-121.762;2022-09-06T05:10:00;99136.28;;;41.23;6.28
49529;BME280;35423;37.320;-121.762;2022-09-06T05:12:27;99139.71;;;41.34;6.17
49529;BME280;35423;37.320;-121.762;2022-09-06T05:14:53;99139.42;;;40.74;6.02
49529;BME280;35423;37.320;-121.762;2022-09-06T05:17:19;99135.96;;;40.74;6.25
49529;BME280;35423;37.320;-121.762;2022-09-06T05:19:46;99135.48;;;40.40;6.01
49529;BME280;35423;37.320;-121.762;2022-09-06T05:22:11;99133.73;;;40.86;6.13
49529;BME280;35423;37.320;-121.762;2022-09-06T05:24:37;99133.69;;;40.47;6.31
49529;BME280;35423;37.320;-121.762;2022-09-06T05:27:02;99129.66;;;40.86;6.06
49529;BME280;35423;37.320;-121.762;2022-09-06T05:29:28;99129.23;;;40.48;6.28
49529;BME280;35423;37.320;-121.762;2022-09-06T05:31:55;99124.45;;;40.50;6.47
49529;BME280;35423;37.320;-121.762;2022-09-06T05:34:20;99124.71;;;40.25;6.15
49529;BME280;35423;37.320;-121.762;2022-09-06T05:36:46;99121.66;;;39.89;6.22
49529;BME280;35423;37.320;-121.762;2022-09-06T05:39:20;99122.90;;;40.29;6.29
49529;BME280;35423;37.320;-121.762;2022-09-06T05:41:46;99121.32;;;40.01;6.30
49529;BME280;35423;37.320;-121.762;2022-09-06T05:44:12;99120.69;;;40.41;5.94
49529;BME280;35423;37.320;-121.762;2022-09-06T05:46:42;99121.18;;;39.85;5.94
49529;BME280;35423;37.320;-121.762;2022-09-06T05:49:05;99121.92;;;40.25;5.97
49529;BME280;35423;37.320;-121.762;2022-09-06T05:51:30;99119.48;;;40.31;6.09
49529;BME280;35423;37.320;-121.762;2022-09-06T05:53:57;99116.81;;;40.41;5.77
49529;BME280;35423;37.320;-121.762;2022-09-06T05:56:25;99118.12;;;40.47;5.80
49529;BME280;35423;37.320;-121.762;2022-09-06T05:58:50;99116.87;;;40.17;5.73
49529;BME280;35423;37.320;-121.762;2022-09-06T06:01:18;99115.82;;;40.14;5.49
49529;BME280;35423;37.320;-121.762;2022-09-06T06:03:49;99114.86;;;39.63;5.49
49529;BME280;35423;37.320;-121.762;2022-09-06T06:06:11;99116.17;;;40.49;5.52
49529;BME280;35423;37.320;-121.762;2022-09-06T06:08:42;99116.19;;;40.19;5.43
49529;BME280;35423;37.320;-121.762;2022-09-06T06:11:09;99116.98;;;40.37;5.51
49529;BME280;35423;37.320;-121.762;2022-09-06T06:13:39;99113.11;;;39.93;5.50
49529;BME280;35423;37.320;-121.762;2022-09-06T06:16:09;99111.92;;;39.90;5.65
49529;BME280;35423;37.320;-121.762;2022-09-06T06:18:33;99110.69;;;39.97;5.77
49529;BME280;35423;37.320;-121.762;2022-09-06T06:21:09;99110.93;;;39.83;5.91
49529;BME280;35423;37.320;-121.762;2022-09-06T06:23:33;99113.02;;;39.78;5.97
49529;BME280;35423;37.320;-121.762;2022-09-06T06:25:58;99114.79;;;39.28;6.08
49529;BME280;35423;37.320;-121.762;2022-09-06T06:28:24;99115.76;;;39.61;6.08
49529;BME280;35423;37.320;-121.762;2022-09-06T06:30:51;99120.81;;;39.46;5.79
49529;BME280;35423;37.320;-121.762;2022-09-06T06:33:19;99120.48;;;39.42;5.95
49529;BME280;35423;37.320;-121.762;2022-09-06T06:38:10;99117.99;;;38.81;6.26
49529;BME280;35423;37.320;-121.762;2022-09-06T06:40:39;99115.45;;;38.79;6.31
49529;BME280;35423;37.320;-121.762;2022-09-06T06:43:04;99113.89;;;39.02;6.12
49529;BME280;35423;37.320;-121.762;2022-09-06T06:45:39;99116.46;;;39.27;5.93
49529;BME280;35423;37.320;-121.762;2022-09-06T06:48:05;99113.43;;;38.87;6.19
49529;BME280;35423;37.320;-121.762;2022-09-06T06:50:33;99114.75;;;38.94;6.10
49529;BME280;35423;37.320;-121.762;2022-09-06T06:52:59;99114.12;;;38.95;6.02
49529;BME280;35423;37.320;-121.762;2022-09-06T06:55:24;99116.68;;;39.46;5.96
49529;BME280;35423;37.320;-121.762;2022-09-06T06:57:59;99121.73;;;39.04;6.12
49529;BME280;35423;37.320;-121.762;2022-09-06T07:00:21;99125.24;;;38.87;6.16
49529;BME280;35423;37.320;-121.762;2022-09-06T07:02:49;99127.68;;;38.66;6.10
49529;BME280;35423;37.320;-121.762;2022-09-06T07:05:16;99128.50;;;39.32;5.90
49529;BME280;35423;37.320;-121.762;2022-09-06T07:07:44;99126.66;;;38.60;5.82
49529;BME280;35423;37.320;-121.762;2022-09-06T07:10:12;99122.05;;;39.07;5.87
49529;BME280;35423;37.320;-121.762;2022-09-06T07:12:40;99122.23;;;38.23;5.94
49529;BME280;35423;37.320;-121.762;2022-09-06T07:15:05;99127.00;;;38.91;5.90
49529;BME280;35423;37.320;-121.762;2022-09-06T07:17:30;99123.79;;;38.97;5.92
49529;BME280;35423;37.320;-121.762;2022-09-06T07:19:55;99122.20;;;38.54;5.84
49529;BME280;35423;37.320;-121.762;2022-09-06T07:22:21;99125.63;;;38.93;5.94
49529;BME280;35423;37.320;-121.762;2022-09-06T07:24:49;99125.24;;;38.57;6.05
49529;BME280;35423;37.320;-121.762;2022-09-06T07:27:14;99125.74;;;38.77;6.32
49529;BME280;35423;37.320;-121.762;2022-09-06T07:29:41;99124.24;;;38.02;6.39
49529;BME280;35423;37.320;-121.762;2022-09-06T07:32:06;99124.84;;;38.64;6.37
49529;BME280;35423;37.320;-121.762;2022-09-06T07:34:32;99127.92;;;38.33;6.56
49529;BME280;35423;37.320;-121.762;2022-09-06T07:37:10;99125.97;;;38.19;6.86
49529;BME280;35423;37.320;-121.762;2022-09-06T07:39:42;99124.60;;;38.18;6.86
49529;BME280;35423;37.320;-121.762;2022-09-06T07:42:07;99122.96;;;38.09;6.97
49529;BME280;35423;37.320;-121.762;2022-09-06T07:44:36;99124.39;;;38.33;7.02
49529;BME280;35423;37.320;-121.762;2022-09-06T07:47:08;99124.98;;;37.88;7.20
49529;BME280;35423;37.320;-121.762;2022-09-06T07:49:34;99125.72;;;38.35;7.03
49529;BME280;35423;37.320;-121.762;2022-09-06T07:52:00;99128.85;;;38.00;7.16
49529;BME280;35423;37.320;-121.762;2022-09-06T07:54:26;99127.68;;;38.12;6.99
49529;BME280;35423;37.320;-121.762;2022-09-06T07:56:51;99128.45;;;37.85;7.01
49529;BME280;35423;37.320;-121.762;2022-09-06T07:59:16;99130.00;;;38.54;7.08
49529;BME280;35423;37.320;-121.762;2022-09-06T08:01:42;99130.94;;;38.47;6.96
49529;BME280;35423;37.320;-121.762;2022-09-06T08:04:11;99130.44;;;38.27;6.98
49529;BME280;35423;37.320;-121.762;2022-09-06T08:06:45;99130.43;;;37.74;7.13
49529;BME280;35423;37.320;-121.762;2022-09-06T08:09:11;99130.93;;;37.55;7.37
49529;BME280;35423;37.320;-121.762;2022-09-06T08:11:47;99131.91;;;37.36;7.31
49529;BME280;35423;37.320;-121.762;2022-09-06T08:14:19;99130.82;;;37.74;7.32
49529;BME280;35423;37.320;-121.762;2022-09-06T08:16:45;99128.69;;;37.29;7.41
49529;BME280;35423;37.320;-121.762;2022-09-06T08:19:11;99125.78;;;37.57;7.42
49529;BME280;35423;37.320;-121.762;2022-09-06T08:21:39;99124.25;;;37.01;7.48
49529;BME280;35423;37.320;-121.762;2022-09-06T08:24:06;99126.76;;;37.39;7.51
49529;BME280;35423;37.320;-121.762;2022-09-06T08:26:33;99127.12;;;37.36;7.55
49529;BME280;35423;37.320;-121.762;2022-09-06T08:29:00;99129.13;;;37.34;7.67
49529;BME280;35423;37.320;-121.762;2022-09-06T08:31:25;99129.24;;;37.47;7.65
49529;BME280;35423;37.320;-121.762;2022-09-06T08:33:51;99129.16;;;37.57;7.64
49529;BME280;35423;37.320;-121.762;2022-09-06T08:36:16;99126.63;;;37.53;7.51
49529;BME280;35423;37.320;-121.762;2022-09-06T08:38:43;99123.67;;;37.55;7.37
49529;BME280;35423;37.320;-121.762;2022-09-06T08:41:15;99119.21;;;37.50;7.33
49529;BME280;35423;37.320;-121.762;2022-09-06T08:43:47;99116.20;;;37.44;7.34
49529;BME280;35423;37.320;-121.762;2022-09-06T08:46:07;99113.45;;;37.30;7.58
49529;BME280;35423;37.320;-121.762;2022-09-06T08:48:34;99109.43;;;37.70;7.72
49529;BME280;35423;37.320;-121.762;2022-09-06T08:51:08;99106.49;;;37.20;7.64
49529;BME280;35423;37.320;-121.762;2022-09-06T08:53:23;99103.51;;;37.17;7.69
49529;BME280;35423;37.320;-121.762;2022-09-06T08:55:51;99101.69;;;36.98;7.77
49529;BME280;35423;37.320;-121.762;2022-09-06T08:58:24;99101.88;;;37.21;7.84
49529;BME280;35423;37.320;-121.762;2022-09-06T09:00:45;99102.50;;;36.66;7.87
49529;BME280;35423;37.320;-121.762;2022-09-06T09:03:09;99102.70;;;37.31;7.91
49529;BME280;35423;37.320;-121.762;2022-09-06T09:05:35;99105.09;;;37.32;8.11
49529;BME280;35423;37.320;-121.762;2022-09-06T09:08:05;99105.97;;;36.86;8.35
49529;BME280;35423;37.320;-121.762;2022-09-06T09:10:28;99104.63;;;36.86;8.28
49529;BME280;35423;37.320;-121.762;2022-09-06T09:12:54;99101.02;;;36.74;8.32
49529;BME280;35423;37.320;-121.762;2022-09-06T09:15:21;99099.17;;;36.90;8.42
49529;BME280;35423;37.320;-121.762;2022-09-06T09:17:47;99098.44;;;36.84;8.38
49529;BME280;35423;37.320;-121.762;2022-09-06T09:20:12;99097.24;;;37.01;8.43
49529;BME280;35423;37.320;-121.762;2022-09-06T09:22:41;99093.18;;;36.72;8.55
49529;BME280;35423;37.320;-121.762;2022-09-06T09:25:16;99090.59;;;37.10;8.64
49529;BME280;35423;37.320;-121.762;2022-09-06T09:27:41;99092.64;;;37.03;8.70
49529;BME280;35423;37.320;-121.762;2022-09-06T09:30:13;99093.82;;;36.64;8.80
49529;BME280;35423;37.320;-121.762;2022-09-06T09:32:43;99094.47;;;35.84;8.93
49529;BME280;35423;37.320;-121.762;2022-09-06T09:35:15;99094.80;;;36.32;8.96
49529;BME280;35423;37.320;-121.762;2022-09-06T09:37:36;99094.10;;;36.62;8.95
49529;BME280;35423;37.320;-121.762;2022-09-06T09:40:02;99089.19;;;36.17;9.12
49529;BME280;35423;37.320;-121.762;2022-09-06T09:42:31;99089.23;;;36.36;9.23
49529;BME280;35423;37.320;-121.762;2022-09-06T09:44:55;99090.38;;;35.90;9.34
49529;BME280;35423;37.320;-121.762;2022-09-06T09:47:26;99090.96;;;36.53;9.49
49529;BME280;35423;37.320;-121.762;2022-09-06T09:49:47;99092.68;;;36.75;9.54
49529;BME280;35423;37.320;-121.762;2022-09-06T09:52:14;99090.43;;;36.53;9.67
49529;BME280;35423;37.320;-121.762;2022-09-06T09:54:43;99090.70;;;36.35;9.47
49529;BME280;35423;37.320;-121.762;2022-09-06T09:57:08;99087.98;;;36.13;9.48
49529;BME280;35423;37.320;-121.762;2022-09-06T09:59:40;99085.52;;;36.12;9.40
49529;BME280;35423;37.320;-121.762;2022-09-06T10:02:15;99089.34;;;35.85;9.61
49529;BME280;35423;37.320;-121.762;2022-09-06T10:04:30;99088.84;;;35.82;9.67
49529;BME280;35423;37.320;-121.762;2022-09-06T10:06:51;99090.40;;;35.82;9.70
49529;BME280;35423;37.320;-121.762;2022-09-06T10:09:21;99095.38;;;35.96;10.07
49529;BME280;35423;37.320;-121.762;2022-09-06T10:11:54;99094.88;;;35.55;10.12
49529;BME280;35423;37.320;-121.762;2022-09-06T10:14:25;99093.44;;;35.77;10.03
49529;BME280;35423;37.320;-121.762;2022-09-06T10:16:42;99088.11;;;35.73;9.95
49529;BME280;35423;37.320;-121.762;2022-09-06T10:21:35;99093.14;;;35.57;10.07
49529;BME280;35423;37.320;-121.762;2022-09-06T10:24:07;99098.44;;;35.35;10.14
49529;BME280;35423;37.320;-121.762;2022-09-06T10:26:34;99096.32;;;35.54;10.24
49529;BME280;35423;37.320;-121.762;2022-09-06T10:28:59;99093.08;;;35.52;10.17
49529;BME280;35423;37.320;-121.762;2022-09-06T10:31:31;99088.57;;;35.42;10.18
49529;BME280;35423;37.320;-121.762;2022-09-06T10:34:01;99088.61;;;35.48;10.29
49529;BME280;35423;37.320;-121.762;2022-09-06T10:36:23;99093.35;;;35.39;10.32
49529;BME280;35423;37.320;-121.762;2022-09-06T10:38:52;99100.88;;;34.22;10.31
49529;BME280;35423;37.320;-121.762;2022-09-06T10:41:30;99099.02;;;35.51;10.36
49529;BME280;35423;37.320;-121.762;2022-09-06T10:43:43;99092.50;;;34.86;10.21
49529;BME280;35423;37.320;-121.762;2022-09-06T10:46:13;99090.40;;;35.13;10.24
49529;BME280;35423;37.320;-121.762;2022-09-06T10:48:39;99088.69;;;35.18;10.29
49529;BME280;35423;37.320;-121.762;2022-09-06T10:51:05;99086.99;;;35.25;10.33
49529;BME280;35423;37.320;-121.762;2022-09-06T10:53:35;99087.24;;;35.23;10.42
49529;BME280;35423;37.320;-121.762;2022-09-06T10:56:00;99091.81;;;34.93;10.51
49529;BME280;35423;37.320;-121.762;2022-09-06T10:58:21;99094.22;;;35.02;10.61
49529;BME280;35423;37.320;-121.762;2022-09-06T11:00:44;99096.49;;;34.54;10.76
49529;BME280;35423;37.320;-121.762;2022-09-06T11:03:16;99096.18;;;34.99;10.73
49529;BME280;35423;37.320;-121.762;2022-09-06T11:05:45;99096.43;;;34.58;10.40
49529;BME280;35423;37.320;-121.762;2022-09-06T11:08:12;99097.28;;;35.23;10.25
49529;BME280;35423;37.320;-121.762;2022-09-06T11:10:38;99095.19;;;34.85;10.33
49529;BME280;35423;37.320;-121.762;2022-09-06T11:13:04;99089.98;;;34.95;10.43
49529;BME280;35423;37.320;-121.762;2022-09-06T11:15:35;99092.93;;;34.52;10.59
49529;BME280;35423;37.320;-121.762;2022-09-06T11:17:59;99098.71;;;35.09;10.51
49529;BME280;35423;37.320;-121.762;2022-09-06T11:20:27;99100.20;;;34.78;10.66
49529;BME280;35423;37.320;-121.762;2022-09-06T11:23:02;99100.14;;;34.98;10.55
49529;BME280;35423;37.320;-121.762;2022-09-06T11:25:28;99092.69;;;34.84;10.53
49529;BME280;35423;37.320;-121.762;2022-09-06T11:27:45;99091.54;;;34.18;10.56
49529;BME280;35423;37.320;-121.762;2022-09-06T11:30:14;99091.19;;;34.71;10.53
49529;BME280;35423;37.320;-121.762;2022-09-06T11:32:40;99093.10;;;34.88;10.58
49529;BME280;35423;37.320;-121.762;2022-09-06T11:35:06;99097.94;;;34.57;10.79
49529;BME280;35423;37.320;-121.762;2022-09-06T11:37:35;99098.87;;;34.76;10.89
49529;BME280;35423;37.320;-121.762;2022-09-06T11:40:04;99103.71;;;34.46;10.94
49529;BME280;35423;37.320;-121.762;2022-09-06T11:45:11;99107.55;;;34.43;10.83
49529;BME280;35423;37.320;-121.762;2022-09-06T11:49:45;99108.57;;;34.18;10.99
49529;BME280;35423;37.320;-121.762;2022-09-06T11:54:43;99106.86;;;34.06;11.12
49529;BME280;35423;37.320;-121.762;2022-09-06T11:57:10;99109.36;;;34.60;11.23
49529;BME280;35423;37.320;-121.762;2022-09-06T11:59:37;99110.79;;;34.90;11.04
49529;BME280;35423;37.320;-121.762;2022-09-06T12:02:01;99107.45;;;34.54;11.10
49529;BME280;35423;37.320;-121.762;2022-09-06T12:04:24;99111.47;;;34.50;11.21
49529;BME280;35423;37.320;-121.762;2022-09-06T12:11:46;99113.54;;;33.67;10.91
49529;BME280;35423;37.320;-121.762;2022-09-06T12:19:07;99111.95;;;34.21;10.88
49529;BME280;35423;37.320;-121.762;2022-09-06T12:24:01;99111.63;;;33.94;11.18
49529;BME280;35423;37.320;-121.762;2022-09-06T12:28:53;99117.88;;;33.84;11.24
49529;BME280;35423;37.320;-121.762;2022-09-06T12:31:28;99117.64;;;34.12;11.12
49529;BME280;35423;37.320;-121.762;2022-09-06T12:33:47;99116.38;;;33.97;10.90
49529;BME280;35423;37.320;-121.762;2022-09-06T12:36:15;99118.34;;;34.05;11.23
49529;BME280;35423;37.320;-121.762;2022-09-06T12:38:46;99118.09;;;33.62;11.24
49529;BME280;35423;37.320;-121.762;2022-09-06T12:41:06;99122.91;;;33.65;11.30
49529;BME280;35423;37.320;-121.762;2022-09-06T12:43:34;99122.08;;;33.97;11.59
49529;BME280;35423;37.320;-121.762;2022-09-06T12:46:00;99128.70;;;33.61;11.64
49529;BME280;35423;37.320;-121.762;2022-09-06T12:48:31;99131.45;;;34.02;11.55
49529;BME280;35423;37.320;-121.762;2022-09-06T12:51:00;99134.50;;;33.83;11.57
49529;BME280;35423;37.320;-121.762;2022-09-06T12:53:23;99128.30;;;34.16;11.38
49529;BME280;35423;37.320;-121.762;2022-09-06T12:55:48;99129.71;;;33.80;11.11
49529;BME280;35423;37.320;-121.762;2022-09-06T12:58:14;99130.20;;;34.02;11.00
49529;BME280;35423;37.320;-121.762;2022-09-06T13:00:40;99136.04;;;32.92;11.26
49529;BME280;35423;37.320;-121.762;2022-09-06T13:03:15;99133.74;;;33.26;11.41
49529;BME280;35423;37.320;-121.762;2022-09-06T13:05:37;99130.62;;;33.54;11.50
49529;BME280;35423;37.320;-121.762;2022-09-06T13:08:01;99139.79;;;33.73;11.41
49529;BME280;35423;37.320;-121.762;2022-09-06T13:10:32;99147.70;;;33.59;11.57
49529;BME280;35423;37.320;-121.762;2022-09-06T13:13:00;99151.39;;;33.37;11.76